Time;durP1;ratioP1;P1;durP2;ratioP2;P2;SDS_P1;SDS_P2;PMS_P1;PMS_P2;Temp;Humidity;BMP_temperature;BMP_pressure;BME280_temperature;BME280_humidity;BME280_pressure;Samples;Min_cycle;Max_cycle;Signal;HPM_P1;HPM_P2
2021/08/10 00:01:20;;;;;;;4.77;3.33;;;14.90;88.60;;;13.90;80.55;98222.53;5060276;28;20446;-84
2021/08/10 00:03:47;;;;;;;4.10;3.43;;;14.90;88.40;;;13.98;80.53;98233.06;5046158;28;20934;-84
2021/08/10 00:06:14;;;;;;;4.00;3.30;;;14.90;88.30;;;13.93;80.24;98217.44;5054280;28;20481;-84
2021/08/10 00:08:41;;;;;;;6.40;3.30;;;14.90;88.30;;;13.98;80.29;98227.63;5036989;28;20457;-84
2021/08/10 00:11:09;;;;;;;4.70;3.50;;;14.80;87.80;;;13.65;80.19;98180.06;5033381;28;20910;-84
2021/08/10 00:13:36;;;;;;;4.00;3.60;;;14.90;88.10;;;13.90;80.42;98217.09;5048775;28;20894;-84
2021/08/10 00:16:03;;;;;;;5.27;3.40;;;14.90;88.20;;;13.95;80.21;98222.66;5052199;28;20454;-84
2021/08/10 00:18:35;;;;;;;4.33;3.57;;;14.80;88.00;;;13.75;80.51;98196.66;5033164;28;20529;-85
2021/08/10 00:21:02;;;;;;;6.30;3.30;;;14.80;87.90;;;13.82;80.50;98223.69;5049992;28;20453;-85
2021/08/10 00:23:30;;;;;;;4.20;3.80;;;14.70;88.00;;;13.75;80.94;98223.78;5021686;28;20447;-85
2021/08/10 00:25:57;;;;;;;6.47;3.40;;;14.70;88.30;;;13.67;81.06;98222.22;5053128;28;20446;-85
2021/08/10 00:28:24;;;;;;;6.10;4.00;;;14.60;88.50;;;13.62;80.82;98224.78;5035272;28;20442;-85
2021/08/10 00:30:51;;;;;;;4.50;4.10;;;14.50;88.80;;;13.55;81.14;98238.44;5034588;28;20469;-85
2021/08/10 00:33:19;;;;;;;4.77;3.97;;;14.50;89.10;;;13.48;81.28;98229.59;5052288;28;20450;-85
2021/08/10 00:35:47;;;;;;;4.13;3.70;;;14.40;89.60;;;12.98;81.70;98179.03;5057199;28;20529;-85
2021/08/10 00:38:14;;;;;;;3.80;3.50;;;14.30;89.90;;;13.18;82.09;98205.94;5053299;28;20831;-85
2021/08/10 00:40:42;;;;;;;6.30;3.87;;;14.20;90.30;;;13.30;82.07;98223.09;5053336;28;20557;-85
2021/08/10 00:43:33;;;;;;;4.47;3.70;;;14.30;90.70;;;13.17;82.95;98218.66;5049802;28;20441;-85
2021/08/10 00:46:02;;;;;;;4.27;3.77;;;14.10;90.90;;;13.02;83.68;98210.06;5057834;28;20445;-85
2021/08/10 00:48:29;;;;;;;4.33;3.90;;;14.00;91.50;;;12.97;83.47;98220.78;5033425;28;20446;-85
2021/08/10 00:50:57;;;;;;;4.70;3.90;;;14.00;91.40;;;12.79;83.78;98210.75;5038088;28;20507;-85
2021/08/10 00:53:26;;;;;;;4.47;3.03;;;13.90;91.80;;;12.92;83.71;98223.34;5041434;28;20445;-85
2021/08/10 00:55:54;;;;;;;4.63;3.77;;;13.80;92.30;;;12.87;83.87;98218.59;5035736;28;20515;-85
2021/08/10 00:58:21;;;;;;;4.07;3.67;;;13.80;92.30;;;12.73;83.61;98191.63;5053105;28;20564;-85
2021/08/10 01:00:48;;;;;;;4.60;3.60;;;13.80;92.50;;;12.78;83.57;98201.81;5052572;28;20460;-85
2021/08/10 01:03:16;;;;;;;5.87;4.00;;;13.80;92.40;;;12.86;84.29;98225.91;5052088;28;20446;-85
2021/08/10 01:05:47;;;;;;;4.40;4.00;;;13.90;92.60;;;12.87;84.13;98224.03;5051422;28;20856;-85
2021/08/10 01:08:30;;;;;;;4.20;3.90;;;13.80;92.70;;;12.84;84.11;98224.47;5051946;28;20468;-85
2021/08/10 01:11:08;;;;;;;4.57;3.97;;;13.80;92.60;;;12.79;84.11;98210.75;5045950;28;20507;-85
2021/08/10 01:13:40;;;;;;;4.13;3.70;;;13.70;92.80;;;12.71;84.78;98215.44;5054524;28;20537;-85
2021/08/10 01:16:21;;;;;;;7.93;4.10;;;13.70;93.00;;;12.66;84.86;98215.28;5045725;28;20845;-84
2021/08/10 01:18:56;;;;;;;4.13;3.63;;;13.60;93.40;;;12.54;85.20;98207.03;5052719;28;20489;-83
2021/08/10 01:21:28;;;;;;;5.63;4.00;;;13.60;93.50;;;12.56;85.17;98212.25;5052172;28;20454;-84
2021/08/10 01:24:04;;;;;;;5.57;3.43;;;13.50;93.80;;;12.39;85.32;98207.41;5072211;28;20446;-84
2021/08/10 01:26:46;;;;;;;4.37;4.07;;;13.50;93.90;;;12.40;85.32;98213.63;5059538;28;20449;-83
2021/08/10 01:29:22;;;;;;;5.03;4.40;;;13.40;94.40;;;12.45;85.71;98211.91;5035692;28;20473;-83
2021/08/10 01:31:52;;;;;;;5.23;4.73;;;13.50;94.80;;;12.14;85.45;98167.59;5051139;28;20450;-83
2021/08/10 01:34:26;;;;;;;5.27;4.50;;;13.40;94.90;;;12.49;85.46;98211.47;5035276;28;20461;-84
2021/08/10 01:36:58;;;;;;;6.33;4.90;;;13.40;94.80;;;12.45;85.63;98220.06;5055100;28;20441;-83
2021/08/10 01:39:28;;;;;;;9.17;4.73;;;13.40;94.60;;;12.47;85.72;98215.22;5053083;28;20524;-84
2021/08/10 01:41:56;;;;;;;5.83;5.10;;;13.40;94.80;;;12.50;85.31;98216.69;5035643;28;20457;-83
2021/08/10 01:44:26;;;;;;;8.90;5.20;;;13.40;94.80;;;12.49;85.33;98216.88;5053908;28;21367;-84
2021/08/10 01:46:56;;;;;;;7.30;4.67;;;13.50;94.40;;;12.36;85.26;98202.44;5033967;28;20446;-84
2021/08/10 01:49:24;;;;;;;4.53;4.13;;;13.40;94.30;;;12.05;85.60;98152.69;5053583;28;20461;-84
2021/08/10 01:51:53;;;;;;;6.73;4.67;;;13.40;94.60;;;12.33;85.47;98202.84;5052952;28;20488;-83
2021/08/10 01:54:22;;;;;;;4.60;4.17;;;13.40;94.80;;;12.29;85.84;98198.94;5057036;28;20441;-84
2021/08/10 01:56:49;;;;;;;11.03;4.30;;;13.30;95.00;;;12.38;86.10;98210.31;5066244;28;20454;-84
2021/08/10 01:59:18;;;;;;;4.70;4.20;;;13.30;95.30;;;12.36;86.31;98213.28;5050919;28;20469;-84
2021/08/10 02:01:47;;;;;;;5.37;4.70;;;13.30;95.50;;;12.36;86.34;98210.56;5067711;28;20441;-85
2021/08/10 02:04:18;;;;;;;4.93;4.13;;;13.30;95.80;;;12.12;86.85;98163.44;5056840;28;20481;-84
2021/08/10 02:06:48;;;;;;;6.80;4.67;;;13.30;96.40;;;12.20;86.76;98168.59;5062483;28;20489;-84
2021/08/10 02:09:18;;;;;;;5.37;4.87;;;13.30;96.40;;;12.36;86.81;98202.44;5046214;28;20453;-84
2021/08/10 02:11:45;;;;;;;5.40;4.33;;;13.30;96.50;;;12.13;86.82;98159.69;5063668;28;20498;-84
2021/08/10 02:14:15;;;;;;;4.97;4.57;;;13.30;96.70;;;12.39;86.43;98202.00;5057649;28;20455;-84
2021/08/10 02:16:42;;;;;;;5.30;4.07;;;13.30;96.90;;;12.39;86.26;98191.16;5061911;28;20454;-84
2021/08/10 02:19:10;;;;;;;6.00;4.97;;;13.30;96.60;;;12.38;86.70;98192.19;5035626;28;20540;-84
2021/08/10 02:21:44;;;;;;;7.57;5.17;;;13.30;96.80;;;12.49;85.80;98197.91;5050194;28;20592;-83
2021/08/10 02:24:21;;;;;;;4.63;4.23;;;13.40;96.50;;;12.34;86.14;98177.41;5059869;28;20454;-83
2021/08/10 02:26:55;;;;;;;4.83;4.37;;;13.30;96.10;;;12.40;86.32;98191.97;5055019;28;20452;-84
2021/08/10 02:29:24;;;;;;;4.50;4.10;;;13.40;95.90;;;12.16;85.91;98165.50;5064290;28;20480;-84
2021/08/10 02:31:52;;;;;;;8.23;4.80;;;13.30;95.70;;;12.25;86.05;98186.91;5075125;28;20450;-84
2021/08/10 02:34:21;;;;;;;4.67;4.20;;;13.30;95.90;;;12.30;86.40;98187.06;5074628;28;20457;-83
2021/08/10 02:36:58;;;;;;;4.90;4.50;;;13.30;95.70;;;12.08;86.43;98163.09;5053602;28;20457;-84
2021/08/10 02:39:27;;;;;;;5.43;4.93;;;13.30;95.70;;;12.26;86.30;98181.25;5058376;28;20461;-84
2021/08/10 02:41:56;;;;;;;5.90;4.60;;;13.20;96.20;;;12.46;85.95;98177.53;5056387;28;20537;-85
2021/08/10 02:44:27;;;;;;;7.00;4.30;;;13.30;96.40;;;12.42;85.89;98147.34;5038179;28;20461;-84
2021/08/10 02:46:54;;;;;;;5.33;3.80;;;13.40;96.20;;;12.68;85.29;98182.50;5056289;28;20522;-84
2021/08/10 02:49:22;;;;;;;5.00;4.60;;;13.50;95.30;;;12.78;84.41;98176.56;5033881;28;20461;-84
2021/08/10 02:51:50;;;;;;;4.57;3.87;;;13.50;94.80;;;12.71;83.56;98160.38;5043912;28;20438;-85
2021/08/10 02:54:20;;;;;;;4.40;3.93;;;13.80;93.80;;;12.85;83.74;98189.00;5046438;28;20457;-84
2021/08/10 02:56:56;;;;;;;7.00;3.97;;;13.70;93.40;;;12.74;84.03;98162.66;5058241;28;20446;-84
2021/08/10 02:59:28;;;;;;;5.50;4.53;;;13.70;93.40;;;12.82;83.58;98178.59;5052972;28;20506;-84
2021/08/10 03:02:02;;;;;;;3.80;3.50;;;13.70;93.00;;;12.77;83.61;98166.78;5068288;28;20515;-84
2021/08/10 03:04:34;;;;;;;5.53;4.60;;;13.70;93.00;;;12.67;83.70;98170.84;5049181;28;20451;-85
2021/08/10 03:07:04;;;;;;;4.67;4.17;;;13.60;92.80;;;12.16;84.15;98105.09;5058597;28;20473;-85
2021/08/10 03:09:33;;;;;;;4.87;4.47;;;13.50;93.10;;;12.41;84.37;98156.53;5070449;28;20462;-85
2021/08/10 03:12:02;;;;;;;4.27;3.97;;;13.50;93.40;;;12.44;84.57;98174.22;5075403;28;20481;-85
2021/08/10 03:14:30;;;;;;;4.60;4.10;;;13.40;93.60;;;12.51;84.52;98171.41;5073297;28;20452;-85
2021/08/10 03:17:01;;;;;;;7.80;4.63;;;13.40;93.70;;;12.39;84.73;98174.88;5050248;28;20488;-86
2021/08/10 03:19:29;;;;;;;5.50;4.53;;;13.40;93.80;;;12.08;84.76;98141.44;5061958;28;20471;-84
2021/08/10 03:21:58;;;;;;;6.03;4.50;;;13.30;93.80;;;12.28;85.01;98184.59;5057375;28;20457;-85
2021/08/10 03:24:29;;;;;;;6.00;5.10;;;13.20;94.00;;;12.11;85.77;98168.06;5016494;28;20458;-86
2021/08/10 03:27:01;;;;;;;6.97;5.40;;;13.20;94.40;;;12.32;85.55;98179.53;5051705;28;20488;-86
2021/08/10 03:29:29;;;;;;;5.83;5.27;;;13.20;94.90;;;12.11;85.36;98156.38;5049522;28;20476;-85
2021/08/10 03:31:57;;;;;;;5.80;5.13;;;13.10;94.30;;;12.21;85.41;98172.13;5054858;28;20532;-85
2021/08/10 03:34:24;;;;;;;7.87;5.50;;;13.10;94.40;;;12.05;85.68;98152.69;5057517;28;20454;-85
2021/08/10 03:36:52;;;;;;;7.00;6.33;;;13.10;94.70;;;12.18;85.71;98168.81;5048153;28;20442;-85
2021/08/10 03:39:19;;;;;;;6.07;5.47;;;13.30;94.70;;;12.22;85.45;98169.22;5048306;28;20525;-85
2021/08/10 03:41:48;;;;;;;9.70;5.77;;;13.20;94.60;;;12.16;85.27;98149.25;5048802;28;20541;-85
2021/08/10 03:44:16;;;;;;;6.03;5.43;;;13.20;94.60;;;12.31;85.47;98156.19;5050874;28;20442;-83
2021/08/10 03:46:44;;;;;;;5.17;4.67;;;13.20;94.80;;;12.34;84.86;98163.88;5049989;28;20549;-83
2021/08/10 03:49:14;;;;;;;5.50;5.00;;;13.20;94.60;;;12.35;84.68;98151.16;5045398;28;20501;-85
2021/08/10 03:51:43;;;;;;;5.83;4.10;;;13.30;94.30;;;12.46;84.86;98164.81;5051168;28;20896;-84
2021/08/10 03:54:11;;;;;;;5.83;4.40;;;13.40;94.10;;;12.52;83.74;98173.91;5045510;28;20460;-84
2021/08/10 03:56:40;;;;;;;5.60;4.90;;;13.40;93.30;;;12.49;83.82;98168.97;5052943;28;20454;-84
2021/08/10 03:59:12;;;;;;;5.63;4.67;;;13.40;93.30;;;12.51;83.84;98168.72;5027996;28;20473;-85
2021/08/10 04:01:39;;;;;;;11.00;5.60;;;13.50;93.00;;;12.49;83.62;98171.66;5041206;28;20439;-84
2021/08/10 04:04:09;;;;;;;7.60;4.83;;;13.50;92.90;;;12.49;83.97;98157.28;5049609;28;20434;-85
2021/08/10 04:06:40;;;;;;;5.80;5.30;;;13.50;93.00;;;12.42;83.68;98136.50;5045875;28;20549;-85
2021/08/10 04:09:07;;;;;;;6.30;4.80;;;13.50;92.70;;;12.30;83.91;98111.19;5051765;28;20450;-84
2021/08/10 04:11:34;;;;;;;9.13;5.07;;;13.60;92.70;;;12.77;82.68;98148.63;5052334;28;20452;-85
2021/08/10 04:14:01;;;;;;;6.20;4.87;;;13.60;92.30;;;12.60;82.95;98124.84;5053477;28;20453;-85
2021/08/10 04:16:32;;;;;;;4.80;4.50;;;13.60;91.80;;;12.26;83.26;98082.91;5028845;28;20459;-84
2021/08/10 04:19:00;;;;;;;4.30;4.00;;;13.60;92.00;;;12.29;83.42;98115.81;5053822;28;21276;-84
2021/08/10 04:21:27;;;;;;;5.13;4.73;;;13.50;92.20;;;12.39;83.54;98125.28;5060439;28;20533;-85
2021/08/10 04:23:59;;;;;;;5.57;4.90;;;13.60;92.40;;;12.52;83.96;98137.88;5027589;28;20461;-85
2021/08/10 04:26:26;;;;;;;5.20;4.40;;;13.50;92.50;;;12.72;83.82;98149.31;5047115;28;20461;-85
2021/08/10 04:28:53;;;;;;;9.47;4.87;;;13.60;92.90;;;12.93;83.00;98149.91;5046625;28;20439;-85
2021/08/10 04:31:20;;;;;;;5.07;4.57;;;13.80;92.60;;;12.91;82.93;98148.47;5054280;28;20476;-85
2021/08/10 04:33:49;;;;;;;5.57;4.77;;;13.90;91.80;;;12.96;81.85;98157.56;5047220;28;20453;-85
2021/08/10 04:36:16;;;;;;;6.60;4.70;;;14.00;90.80;;;13.07;81.44;98125.31;5053412;28;20460;-84
2021/08/10 04:38:43;;;;;;;7.47;4.90;;;14.10;90.90;;;13.11;81.27;98140.91;5033946;28;20476;-84
2021/08/10 04:41:10;;;;;;;7.20;4.63;;;14.10;90.10;;;12.79;81.69;98102.31;5034355;28;20477;-84
2021/08/10 04:43:37;;;;;;;5.63;4.30;;;14.10;89.90;;;13.37;80.82;98146.19;5027102;28;20537;-84
2021/08/10 04:46:04;;;;;;;6.00;5.40;;;14.30;89.60;;;13.45;79.83;98154.06;5053555;28;20453;-84
2021/08/10 04:48:31;;;;;;;5.60;4.70;;;14.50;87.40;;;13.35;79.31;98124.75;5040204;28;20454;-85
2021/08/10 04:51:00;;;;;;;6.33;5.37;;;14.60;86.70;;;13.66;79.17;98165.44;5036876;28;20450;-84
2021/08/10 04:53:27;;;;;;;10.43;8.20;;;14.60;86.40;;;13.62;78.52;98158.81;5050086;28;20545;-84
2021/08/10 04:55:54;;;;;;;6.17;5.57;;;14.70;85.90;;;13.34;78.02;98108.69;5053086;28;20587;-84
2021/08/10 04:58:21;;;;;;;5.10;4.60;;;14.70;85.50;;;13.94;78.25;98177.56;5050347;28;20448;-85
2021/08/10 05:00:50;;;;;;;10.47;5.60;;;14.80;85.40;;;13.64;77.49;98113.28;5052306;28;20522;-84
2021/08/10 05:03:17;;;;;;;5.63;5.03;;;15.00;84.50;;;14.11;77.13;98173.09;5038783;28;20456;-84
2021/08/10 05:05:51;;;;;;;6.50;5.50;;;15.10;83.80;;;14.05;76.62;98163.16;5062957;28;20509;-84
2021/08/10 05:08:21;;;;;;;4.70;4.30;;;15.10;83.00;;;13.75;76.51;98096.19;5047038;28;20469;-85
2021/08/10 05:10:50;;;;;;;4.87;4.37;;;15.10;83.20;;;13.98;75.78;98113.53;5046691;28;20481;-85
2021/08/10 05:13:19;;;;;;;4.80;4.37;;;15.30;82.90;;;14.71;75.07;98175.81;5053975;28;20446;-84
2021/08/10 05:15:46;;;;;;;6.20;5.00;;;15.50;82.20;;;14.76;74.49;98166.94;5056777;28;20430;-84
2021/08/10 05:18:13;;;;;;;9.20;4.37;;;15.70;80.80;;;14.76;74.42;98177.81;5075261;28;20452;-85
2021/08/10 05:20:41;;;;;;;7.23;5.00;;;15.80;79.70;;;14.88;73.64;98159.59;5062257;28;20480;-86
2021/08/10 05:25:55;;;;;;;4.83;4.37;;;16.00;78.80;;;14.56;73.12;98089.28;5060001;28;20449;-85
2021/08/10 05:28:22;;;;;;;5.80;4.30;;;16.30;77.70;;;15.19;73.30;98171.09;5047383;28;20807;-84
2021/08/10 05:30:50;;;;;;;5.50;4.50;;;16.30;77.30;;;15.43;72.28;98181.91;5062527;28;20493;-85
2021/08/10 05:33:17;;;;;;;9.20;5.40;;;16.50;76.10;;;15.37;71.91;98156.47;5060959;28;20463;-85
2021/08/10 05:35:44;;;;;;;6.10;4.53;;;16.70;75.10;;;15.64;71.04;98165.94;5065011;28;20460;-83
2021/08/10 05:38:14;;;;;;;6.23;4.63;;;16.90;74.70;;;15.80;70.18;98137.88;5072513;28;20773;-86
2021/08/10 05:40:45;;;;;;;5.40;4.50;;;16.90;73.90;;;15.95;70.28;98172.78;5066237;28;20495;-85
2021/08/10 05:43:16;;;;;;;5.43;3.90;;;17.00;73.80;;;16.30;70.01;98173.59;5067780;28;20468;-84
2021/08/10 05:45:51;;;;;;;5.70;3.97;;;17.20;73.50;;;16.37;69.25;98160.63;5053375;28;20442;-85
2021/08/10 05:48:23;;;;;;;4.20;3.27;;;17.40;72.30;;;16.64;68.18;98173.56;5065374;28;20449;-84
2021/08/10 05:50:50;;;;;;;4.30;4.00;;;17.50;71.70;;;16.73;67.32;98143.09;5064090;28;20526;-84
2021/08/10 05:53:19;;;;;;;6.07;4.10;;;17.90;70.10;;;16.94;67.18;98163.28;5050758;28;20473;-84
2021/08/10 05:55:56;;;;;;;4.37;3.97;;;18.10;69.40;;;17.49;64.99;98145.09;5065392;28;20480;-85
2021/08/10 05:58:29;;;;;;;4.97;4.40;;;18.90;67.30;;;18.12;62.89;98173.84;5068598;28;20536;-84
2021/08/10 06:00:56;;;;;;;5.63;4.57;;;19.70;64.50;;;18.26;62.12;98179.69;5061490;28;20485;-84
2021/08/10 06:03:23;;;;;;;5.63;4.57;;;20.00;62.70;;;18.17;62.62;98178.53;5059471;28;20438;-84
2021/08/10 06:05:51;;;;;;;4.93;4.00;;;19.90;62.60;;;18.05;63.13;98168.59;5027113;28;20483;-84
2021/08/10 06:08:18;;;;;;;6.20;4.37;;;19.70;62.90;;;17.69;64.03;98165.53;5056668;28;20446;-85
2021/08/10 06:10:46;;;;;;;4.60;4.03;;;19.30;63.20;;;17.61;64.17;98141.41;5055037;28;20449;-84
2021/08/10 06:13:12;;;;;;;5.30;3.63;;;19.10;63.80;;;17.86;64.02;98175.50;5059773;28;20449;-84
2021/08/10 06:15:42;;;;;;;5.43;4.20;;;19.00;64.00;;;17.79;64.12;98176.53;5058145;28;20484;-85
2021/08/10 06:18:09;;;;;;;5.60;4.10;;;19.00;64.30;;;17.93;63.91;98174.22;5028418;28;20515;-85
2021/08/10 06:20:36;;;;;;;6.00;4.00;;;19.00;64.40;;;17.80;63.33;98123.53;5051829;28;20463;-82
2021/08/10 06:23:05;;;;;;;4.80;4.10;;;19.10;64.20;;;18.06;63.16;98177.63;5063735;28;21003;-83
2021/08/10 06:25:32;;;;;;;5.10;3.70;;;19.10;64.10;;;17.94;64.07;98166.81;5061824;28;21025;-82
2021/08/10 06:28:02;;;;;;;5.53;4.30;;;18.90;64.50;;;17.96;64.07;98167.38;5061478;28;20528;-83
2021/08/10 06:30:30;;;;;;;6.63;3.70;;;18.80;64.80;;;18.09;63.99;98166.97;5064027;28;20495;-82
2021/08/10 06:32:58;;;;;;;7.37;4.97;;;18.90;64.80;;;18.16;64.11;98182.38;5064361;28;20452;-81
2021/08/10 06:35:26;;;;;;;9.33;4.20;;;19.10;64.80;;;18.00;64.64;98182.19;5061129;28;20521;-83
2021/08/10 06:37:53;;;;;;;4.93;4.43;;;19.00;64.70;;;18.58;63.09;98173.38;5056594;28;20448;-82
2021/08/10 06:40:20;;;;;;;6.07;4.50;;;19.40;64.50;;;18.88;61.72;98169.16;5056068;28;20466;-82
2021/08/10 06:42:47;;;;;;;8.37;4.87;;;19.70;63.80;;;18.90;61.54;98156.03;5056894;28;20481;-82
2021/08/10 06:45:14;;;;;;;10.33;4.50;;;19.90;63.70;;;18.75;61.70;98161.41;5059372;28;20610;-82
2021/08/10 06:47:43;;;;;;;7.30;3.80;;;19.90;63.50;;;18.74;61.43;98181.66;5057534;28;20453;-81
2021/08/10 06:50:12;;;;;;;5.10;3.60;;;19.80;62.80;;;18.50;61.65;98151.97;5061657;28;20480;-83
2021/08/10 06:52:39;;;;;;;6.10;3.50;;;19.70;62.90;;;18.61;61.84;98186.50;5051744;28;20580;-81
2021/08/10 06:55:08;;;;;;;5.23;3.87;;;19.60;62.90;;;18.51;61.53;98159.91;5031872;28;20457;-87
2021/08/10 06:57:38;;;;;;;8.27;3.40;;;19.60;62.90;;;18.72;62.21;98186.56;5031488;28;20496;-88
2021/08/10 07:00:07;;;;;;;5.73;4.10;;;19.70;63.30;;;18.62;61.63;98177.22;5030689;28;20576;-87
2021/08/10 07:02:35;;;;;;;4.30;4.00;;;19.70;63.00;;;18.84;61.47;98181.69;5016236;28;20532;-84
2021/08/10 07:05:02;;;;;;;3.47;3.00;;;19.70;63.00;;;18.87;61.34;98183.91;5064062;28;20464;-81
2021/08/10 07:07:31;;;;;;;6.03;3.45;;;19.90;62.80;;;18.93;61.04;98171.91;5056698;28;20475;-81
2021/08/10 07:09:58;;;;;;;4.40;3.78;;;19.90;62.60;;;18.72;61.33;98145.50;5056295;28;20468;-82
2021/08/10 07:12:25;;;;;;;7.10;3.63;;;20.00;62.70;;;18.87;61.34;98140.09;5037729;28;20195;-82
2021/08/10 07:14:52;;;;;;;5.60;3.80;;;20.10;62.80;;;19.29;61.04;98192.34;5059242;28;20469;-82
2021/08/10 07:17:19;;;;;;;7.40;3.73;;;20.30;62.80;;;19.14;61.14;98154.78;5055422;28;20454;-82
2021/08/10 07:19:46;;;;;;;4.18;3.55;;;20.40;62.70;;;19.40;59.39;98163.88;5053715;28;21003;-81
2021/08/10 07:22:13;;;;;;;4.87;4.37;;;20.50;62.00;;;19.54;58.30;98166.91;5059861;28;20223;-81
2021/08/10 07:24:42;;;;;;;5.63;3.57;;;20.70;61.00;;;19.87;57.84;98174.94;5061303;28;20792;-81
2021/08/10 07:27:09;;;;;;;3.53;3.27;;;20.80;60.80;;;20.09;57.45;98160.97;5058571;28;20438;-81
2021/08/10 07:29:36;;;;;;;10.07;4.70;;;21.10;61.00;;;20.19;57.78;98171.13;5060501;28;20556;-80
2021/08/10 07:32:04;;;;;;;5.83;3.83;;;21.40;60.60;;;20.74;57.47;98165.81;5050121;28;20519;-81
2021/08/10 07:34:31;;;;;;;6.63;4.50;;;21.70;61.00;;;20.58;57.01;98154.06;5058770;28;20541;-80
2021/08/10 07:36:58;;;;;;;4.20;3.80;;;21.80;60.40;;;20.61;56.52;98161.75;5056948;28;20465;-79
2021/08/10 07:39:25;;;;;;;25.30;6.30;;;21.90;60.00;;;20.86;56.02;98143.59;5063363;28;20434;-85
2021/08/10 07:41:53;;;;;;;6.73;4.60;;;22.10;59.70;;;20.88;56.23;98149.63;5063324;28;20537;-82
2021/08/10 07:44:20;;;;;;;4.47;4.07;;;22.20;59.70;;;20.50;57.25;98144.50;5052187;28;20446;-81
2021/08/10 07:46:47;;;;;;;6.47;4.87;;;21.90;59.60;;;20.31;57.97;98138.75;5052990;28;20972;-79
2021/08/10 07:49:15;;;;;;;4.60;4.00;;;21.60;60.00;;;20.37;57.74;98143.13;5056922;28;20545;-81
2021/08/10 07:51:42;;;;;;;8.57;3.97;;;21.70;60.00;;;20.33;58.45;98158.50;5058949;28;20452;-81
2021/08/10 07:54:09;;;;;;;5.40;4.33;;;21.60;60.30;;;20.34;57.74;98120.94;5048453;28;20454;-81
2021/08/10 07:56:36;;;;;;;4.63;3.90;;;21.60;60.20;;;20.00;58.64;98080.34;5060277;28;20470;-81
2021/08/10 07:59:04;;;;;;;4.93;3.30;;;21.60;60.30;;;20.37;57.21;98112.13;5058356;28;20466;-81
2021/08/10 08:01:31;;;;;;;6.60;3.93;;;21.60;60.10;;;20.63;57.46;98143.06;5052746;28;20944;-82
2021/08/10 08:03:58;;;;;;;4.40;4.00;;;21.60;60.30;;;20.45;58.07;98151.91;5055503;28;20446;-82
2021/08/10 08:06:26;;;;;;;4.90;3.77;;;21.60;60.20;;;20.53;57.62;98145.84;5051161;28;20861;-82
2021/08/10 08:08:53;;;;;;;4.90;3.97;;;21.70;60.30;;;20.53;57.23;98160.38;5057291;28;20991;-82
2021/08/10 08:11:20;;;;;;;5.53;4.10;;;21.70;59.90;;;20.64;57.24;98152.94;5055502;28;20589;-81
2021/08/10 08:13:47;;;;;;;4.40;3.63;;;21.70;59.90;;;20.13;58.16;98136.59;5046930;28;20449;-82
2021/08/10 08:16:17;;;;;;;8.47;3.83;;;21.50;59.80;;;20.13;58.73;98142.06;5066754;28;20513;-81
2021/08/10 08:18:44;;;;;;;4.13;3.70;;;21.40;60.10;;;20.29;58.11;98132.72;5061864;28;20442;-81
2021/08/10 08:21:11;;;;;;;9.70;4.50;;;21.30;60.40;;;20.36;58.33;98138.72;5050148;28;20589;-81
2021/08/10 08:23:38;;;;;;;5.23;4.17;;;21.40;60.70;;;20.24;58.31;98117.09;5055801;28;20888;-81
2021/08/10 08:26:06;;;;;;;5.90;4.00;;;21.40;60.30;;;20.59;57.49;98128.28;5055032;28;20929;-81
2021/08/10 08:28:34;;;;;;;8.73;3.60;;;21.50;60.30;;;20.66;58.07;98111.50;5031801;28;20493;-80
2021/08/10 08:31:02;;;;;;;4.50;4.10;;;21.60;60.70;;;20.76;57.36;98121.63;5054817;28;20461;-81
2021/08/10 08:33:31;;;;;;;6.83;4.30;;;21.60;60.40;;;20.67;56.89;98124.13;5049761;28;20437;-80
2021/08/10 08:35:58;;;;;;;5.87;4.07;;;21.70;59.90;;;20.97;56.65;98124.31;5058383;28;20805;-81
2021/08/10 08:38:25;;;;;;;4.97;3.70;;;21.80;60.10;;;21.16;56.53;98125.34;5049910;28;20565;-81
2021/08/10 08:40:53;;;;;;;4.30;3.87;;;22.00;60.10;;;21.05;56.02;98110.81;5032982;28;20883;-80
2021/08/10 08:43:22;;;;;;;8.17;3.77;;;22.10;59.80;;;21.25;55.89;98116.50;5057682;28;20488;-81
2021/08/10 08:45:50;;;;;;;4.20;3.50;;;22.10;59.70;;;21.27;55.66;98125.25;5050519;28;20755;-82
2021/08/10 08:48:18;;;;;;;5.60;3.90;;;22.20;59.70;;;21.37;55.82;98116.97;5046918;28;20445;-86
2021/08/10 08:50:55;;;;;;;5.28;3.70;;;22.30;59.80;;;21.64;55.45;98113.75;5053938;28;20502;-89
2021/08/10 08:53:23;;;;;;;8.30;3.70;;;22.40;59.90;;;21.69;55.09;98120.38;5046847;28;20202;-82
2021/08/10 08:55:50;;;;;;;4.23;3.70;;;22.50;59.50;;;21.81;54.92;98125.50;5039734;28;20453;-82
2021/08/10 08:58:18;;;;;;;7.70;3.60;;;22.60;59.50;;;21.76;54.35;98118.94;5052714;28;20485;-81
2021/08/10 09:00:45;;;;;;;3.90;3.23;;;22.70;59.20;;;21.92;54.22;98105.88;5055565;28;20515;-81
2021/08/10 09:03:12;;;;;;;3.90;3.20;;;22.80;59.30;;;21.84;54.20;98094.69;5047683;28;20474;-82
2021/08/10 09:05:47;;;;;;;7.60;3.27;;;22.80;59.00;;;22.13;53.80;98102.13;5064877;28;20465;-81
2021/08/10 09:08:32;;;;;;;7.20;2.67;;;23.00;59.00;;;21.98;52.61;98078.31;5063973;28;20497;-82
2021/08/10 09:11:02;;;;;;;3.70;2.80;;;23.00;58.00;;;22.16;50.69;98096.03;5057676;28;20465;-81
2021/08/10 09:13:33;;;;;;;3.33;2.70;;;23.10;57.40;;;22.47;49.61;98107.59;5065879;28;20461;-81
2021/08/10 09:16:02;;;;;;;2.43;2.23;;;23.20;56.70;;;22.29;47.87;98084.34;5063349;28;20529;-81
2021/08/10 09:18:30;;;;;;;4.50;2.20;;;23.30;55.30;;;22.37;48.01;98091.16;5046644;28;20450;-81
2021/08/10 09:21:06;;;;;;;3.17;2.30;;;23.30;55.10;;;22.65;46.50;98116.22;5064391;28;20512;-80
2021/08/10 09:23:50;;;;;;;2.83;2.33;;;23.50;54.40;;;22.68;46.13;98117.56;5052978;28;20461;-80
2021/08/10 09:26:20;;;;;;;2.40;2.10;;;23.60;54.40;;;22.52;47.85;98115.00;5056440;28;20452;-81
2021/08/10 09:28:49;;;;;;;3.53;2.17;;;23.50;54.50;;;22.57;47.40;98111.34;5063170;28;20484;-81
2021/08/10 09:31:38;;;;;;;3.30;2.60;;;23.50;54.50;;;22.54;47.98;98115.50;5064627;28;20651;-82
2021/08/10 09:34:08;;;;;;;2.60;2.30;;;23.50;54.70;;;22.32;48.29;98071.94;5064389;28;20879;-81
2021/08/10 09:36:37;;;;;;;4.23;2.40;;;23.40;54.90;;;22.67;47.28;98099.38;5059296;28;20482;-81
2021/08/10 09:39:05;;;;;;;2.90;2.27;;;23.60;54.70;;;22.87;46.32;98112.09;5056203;28;20442;-82
2021/08/10 09:41:33;;;;;;;4.27;2.40;;;23.70;54.00;;;23.05;45.73;98091.22;5054188;28;20497;-81
2021/08/10 09:44:17;;;;;;;2.13;1.90;;;23.90;54.30;;;22.58;46.37;98105.53;5034094;28;20468;-80
2021/08/10 09:46:48;;;;;;;2.97;2.10;;;23.70;53.30;;;22.41;46.94;98107.91;5044638;28;20457;-79
2021/08/10 09:49:18;;;;;;;4.10;2.03;;;23.30;53.60;;;22.71;46.44;98122.47;5047850;28;20506;-80
2021/08/10 09:51:51;;;;;;;3.83;1.80;;;23.40;53.80;;;22.72;45.18;98124.13;5047289;28;20655;-85
2021/08/10 09:54:22;;;;;;;2.27;2.10;;;23.50;53.00;;;22.89;45.83;98124.47;5054708;28;20628;-87
2021/08/10 09:56:52;;;;;;;2.80;2.00;;;23.60;53.30;;;23.16;45.80;98128.53;5052887;28;20496;-84
2021/08/10 09:59:21;;;;;;;2.70;2.10;;;23.80;53.60;;;23.24;45.75;98128.97;5051626;28;20462;-85
2021/08/10 10:01:51;;;;;;;3.13;2.30;;;24.10;53.40;;;23.64;44.36;98126.78;5045154;28;20497;-84
2021/08/10 10:04:23;;;;;;;3.70;2.17;;;24.40;53.20;;;24.12;43.74;98130.47;5045658;28;20969;-84
2021/08/10 10:06:53;;;;;;;2.13;1.83;;;24.80;53.10;;;24.16;42.90;98103.91;5048272;28;20469;-85
2021/08/10 10:09:23;;;;;;;3.70;2.20;;;25.10;52.80;;;24.56;42.28;98134.63;5049528;28;20549;-84
2021/08/10 10:11:52;;;;;;;3.50;2.27;;;25.40;52.20;;;24.78;41.75;98135.91;5045322;28;20460;-85
2021/08/10 10:14:19;;;;;;;3.23;2.30;;;25.70;52.00;;;24.98;41.42;98133.88;5038149;28;20541;-85
2021/08/10 10:16:51;;;;;;;2.93;2.37;;;25.80;51.60;;;24.47;41.78;98129.00;5050566;28;20486;-84
2021/08/10 10:19:20;;;;;;;3.63;2.20;;;25.60;51.50;;;24.38;42.50;98132.78;5039464;28;20480;-83
2021/08/10 10:21:51;;;;;;;4.50;2.10;;;25.40;52.00;;;24.26;43.11;98134.09;5048238;28;20454;-85
2021/08/10 10:24:20;;;;;;;4.40;2.77;;;25.30;51.80;;;24.45;42.99;98134.03;5041720;28;20514;-83
2021/08/10 10:26:54;;;;;;;2.40;2.20;;;25.30;52.30;;;24.77;42.48;98128.75;5035919;28;20481;-84
2021/08/10 10:29:22;;;;;;;4.00;2.73;;;25.50;52.20;;;24.67;42.84;98112.34;5054619;28;20477;-86
2021/08/10 10:31:49;;;;;;;2.33;2.13;;;25.70;51.90;;;24.54;42.59;98119.50;5047119;28;20450;-85